sensor_id;sensor_type;location;lat;lon;timestamp;temperature;humidity
20204;DHT22;10261;49.010;12.034;2023-05-29T00:00:13;15.20;99.90
20204;DHT22;10261;49.010;12.034;2023-05-29T00:01:17;15.20;99.90
20204;DHT22;10261;49.010;12.034;2023-05-29T00:02:22;15.20;99.90
20204;DHT22;10261;49.010;12.034;2023-05-29T00:03:24;15.20;99.90
20204;DHT22;10261;49.010;12.034;2023-05-29T00:04:28;15.20;99.90
20204;DHT22;10261;49.010;12.034;2023-05-29T00:05:30;15.20;99.90
20204;DHT22;10261;49.010;12.034;2023-05-29T00:06:33;15.20;99.90
20204;DHT22;10261;49.010;12.034;2023-05-29T00:07:35;15.20;99.90
20204;DHT22;10261;49.010;12.034;2023-05-29T00:08:37;15.20;99.90
20204;DHT22;10261;49.010;12.034;2023-05-29T00:09:39;15.20;99.90
20204;DHT22;10261;49.010;12.034;2023-05-29T00:10:42;15.20;99.90
20204;DHT22;10261;49.010;12.034;2023-05-29T00:11:45;15.20;99.90
20204;DHT22;10261;49.010;12.034;2023-05-29T00:12:52;15.20;99.90
20204;DHT22;10261;49.010;12.034;2023-05-29T00:13:54;15.10;99.90
20204;DHT22;10261;49.010;12.034;2023-05-29T00:14:58;15.20;99.90
20204;DHT22;10261;49.010;12.034;2023-05-29T00:16:00;15.20;99.90
20204;DHT22;10261;49.010;12.034;2023-05-29T00:17:05;15.10;99.90
20204;DHT22;10261;49.010;12.034;2023-05-29T00:18:07;15.10;99.90
20204;DHT22;10261;49.010;12.034;2023-05-29T00:19:10;15.20;99.90
20204;DHT22;10261;49.010;12.034;2023-05-29T00:20:12;15.10;99.90
20204;DHT22;10261;49.010;12.034;2023-05-29T00:21:15;15.00;99.90
20204;DHT22;10261;49.010;12.034;2023-05-29T00:22:17;15.00;99.90
20204;DHT22;10261;49.010;12.034;2023-05-29T00:23:21;15.00;99.90
20204;DHT22;10261;49.010;12.034;2023-05-29T00:24:23;15.00;99.90
20204;DHT22;10261;49.010;12.034;2023-05-29T00:25:26;15.10;99.90
20204;DHT22;10261;49.010;12.034;2023-05-29T00:26:28;15.10;99.90
20204;DHT22;10261;49.010;12.034;2023-05-29T00:27:32;15.10;99.90
20204;DHT22;10261;49.010;12.034;2023-05-29T00:28:35;15.00;99.90
20204;DHT22;10261;49.010;12.034;2023-05-29T00:29:38;15.10;99.90
20204;DHT22;10261;49.010;12.034;2023-05-29T00:30:40;15.10;99.90
20204;DHT22;10261;49.010;12.034;2023-05-29T00:31:43;15.10;99.90
20204;DHT22;10261;49.010;12.034;2023-05-29T00:32:45;15.10;99.90
20204;DHT22;10261;49.010;12.034;2023-05-29T00:33:48;15.10;99.90
20204;DHT22;10261;49.010;12.034;2023-05-29T00:34:50;15.10;99.90
20204;DHT22;10261;49.010;12.034;2023-05-29T00:35:53;15.10;99.90
20204;DHT22;10261;49.010;12.034;2023-05-29T00:36:55;15.10;99.90
20204;DHT22;10261;49.010;12.034;2023-05-29T00:37:58;15.10;99.90
20204;DHT22;10261;49.010;12.034;2023-05-29T00:39:00;15.10;99.90
20204;DHT22;10261;49.010;12.034;2023-05-29T00:40:04;15.20;99.90
20204;DHT22;10261;49.010;12.034;2023-05-29T00:41:06;15.10;99.90
20204;DHT22;10261;49.010;12.034;2023-05-29T00:42:09;15.10;99.90
20204;DHT22;10261;49.010;12.034;2023-05-29T00:43:13;15.10;99.90
20204;DHT22;10261;49.010;12.034;2023-05-29T00:44:16;15.10;99.90
20204;DHT22;10261;49.010;12.034;2023-05-29T00:45:18;15.10;99.90
20204;DHT22;10261;49.010;12.034;2023-05-29T00:46:21;15.10;99.90
20204;DHT22;10261;49.010;12.034;2023-05-29T00:47:23;15.10;99.90
20204;DHT22;10261;49.010;12.034;2023-05-29T00:48:26;15.10;99.90
20204;DHT22;10261;49.010;12.034;2023-05-29T00:49:28;15.10;99.90
20204;DHT22;10261;49.010;12.034;2023-05-29T00:50:31;15.00;99.90
20204;DHT22;10261;49.010;12.034;2023-05-29T00:51:34;15.10;99.90
20204;DHT22;10261;49.010;12.034;2023-05-29T00:52:39;15.10;99.90
20204;DHT22;10261;49.010;12.034;2023-05-29T00:53:43;15.10;99.90
20204;DHT22;10261;49.010;12.034;2023-05-29T00:54:47;15.20;99.90
20204;DHT22;10261;49.010;12.034;2023-05-29T00:55:49;15.20;99.90
20204;DHT22;10261;49.010;12.034;2023-05-29T00:56:52;15.20;99.90
20204;DHT22;10261;49.010;12.034;2023-05-29T00:57:54;15.10;99.90
20204;DHT22;10261;49.010;12.034;2023-05-29T00:58:58;15.10;99.90
20204;DHT22;10261;49.010;12.034;2023-05-29T01:00:01;15.10;99.90
20204;DHT22;10261;49.010;12.034;2023-05-29T01:01:07;15.20;99.90
20204;DHT22;10261;49.010;12.034;2023-05-29T01:02:09;15.20;99.90
20204;DHT22;10261;49.010;12.034;2023-05-29T01:03:12;15.20;99.90
20204;DHT22;10261;49.010;12.034;2023-05-29T01:04:16;15.10;99.90
20204;DHT22;10261;49.010;12.034;2023-05-29T01:05:19;15.10;99.90
20204;DHT22;10261;49.010;12.034;2023-05-29T01:06:21;15.10;99.90
20204;DHT22;10261;49.010;12.034;2023-05-29T01:07:24;15.10;99.90
20204;DHT22;10261;49.010;12.034;2023-05-29T01:08:27;15.10;99.90
20204;DHT22;10261;49.010;12.034;2023-05-29T01:09:30;11.30;99.90
20204;DHT22;10261;49.010;12.034;2023-05-29T01:10:32;15.10;99.90
20204;DHT22;10261;49.010;12.034;2023-05-29T01:11:44;15.20;99.90
20204;DHT22;10261;49.010;12.034;2023-05-29T01:12:50;15.20;99.90
20204;DHT22;10261;49.010;12.034;2023-05-29T01:13:59;15.10;99.90
20204;DHT22;10261;49.010;12.034;2023-05-29T01:15:14;15.20;99.90
20204;DHT22;10261;49.010;12.034;2023-05-29T01:16:23;15.20;99.90
20204;DHT22;10261;49.010;12.034;2023-05-29T01:17:32;15.20;99.90
20204;DHT22;10261;49.010;12.034;2023-05-29T01:18:42;15.20;99.90
20204;DHT22;10261;49.010;12.034;2023-05-29T01:20:04;15.20;99.90
20204;DHT22;10261;49.010;12.034;2023-05-29T01:21:13;15.10;99.90
20204;DHT22;10261;49.010;12.034;2023-05-29T01:22:26;15.20;99.90
20204;DHT22;10261;49.010;12.034;2023-05-29T01:23:51;15.20;99.90
20204;DHT22;10261;49.010;12.034;2023-05-29T01:25:01;15.20;99.90
20204;DHT22;10261;49.010;12.034;2023-05-29T01:26:12;15.20;99.90
20204;DHT22;10261;49.010;12.034;2023-05-29T01:27:21;15.10;99.90
20204;DHT22;10261;49.010;12.034;2023-05-29T01:28:28;15.20;99.90
20204;DHT22;10261;49.010;12.034;2023-05-29T01:29:34;15.10;99.90
20204;DHT22;10261;49.010;12.034;2023-05-29T01:30:37;15.20;99.90
20204;DHT22;10261;49.010;12.034;2023-05-29T01:31:42;15.20;99.90
20204;DHT22;10261;49.010;12.034;2023-05-29T01:32:45;15.10;99.90
20204;DHT22;10261;49.010;12.034;2023-05-29T01:33:52;15.20;99.90
20204;DHT22;10261;49.010;12.034;2023-05-29T01:34:54;15.10;99.90
20204;DHT22;10261;49.010;12.034;2023-05-29T01:35:57;15.10;99.90
20204;DHT22;10261;49.010;12.034;2023-05-29T01:36:59;15.10;99.90
20204;DHT22;10261;49.010;12.034;2023-05-29T01:38:02;15.10;99.90
20204;DHT22;10261;49.010;12.034;2023-05-29T01:39:04;15.00;99.90
20204;DHT22;10261;49.010;12.034;2023-05-29T01:40:09;15.10;99.90
20204;DHT22;10261;49.010;12.034;2023-05-29T01:41:11;15.00;99.90
20204;DHT22;10261;49.010;12.034;2023-05-29T01:42:14;15.00;99.90
20204;DHT22;10261;49.010;12.034;2023-05-29T01:43:17;15.00;99.90
20204;DHT22;10261;49.010;12.034;2023-05-29T01:44:21;14.90;99.90
20204;DHT22;10261;49.010;12.034;2023-05-29T01:45:23;15.00;99.90
20204;DHT22;10261;49.010;12.034;2023-05-29T01:46:27;14.90;99.90
20204;DHT22;10261;49.010;12.034;2023-05-29T01:47:29;14.90;99.90
20204;DHT22;10261;49.010;12.034;2023-05-29T01:48:32;14.80;99.90
20204;DHT22;10261;49.010;12.034;2023-05-29T01:49:34;14.80;99.90
20204;DHT22;10261;49.010;12.034;2023-05-29T01:50:40;14.80;99.90
20204;DHT22;10261;49.010;12.034;2023-05-29T01:51:45;14.80;99.90
20204;DHT22;10261;49.010;12.034;2023-05-29T01:52:48;14.80;99.90
20204;DHT22;10261;49.010;12.034;2023-05-29T01:53:50;14.80;99.90
20204;DHT22;10261;49.010;12.034;2023-05-29T01:54:53;14.80;99.90
20204;DHT22;10261;49.010;12.034;2023-05-29T01:55:55;14.70;99.90
20204;DHT22;10261;49.010;12.034;2023-05-29T01:56:58;14.70;99.90
20204;DHT22;10261;49.010;12.034;2023-05-29T01:58:01;14.70;99.90
20204;DHT22;10261;49.010;12.034;2023-05-29T01:59:06;14.70;99.90
20204;DHT22;10261;49.010;12.034;2023-05-29T02:00:09;14.70;99.90
20204;DHT22;10261;49.010;12.034;2023-05-29T02:01:13;14.70;99.90
20204;DHT22;10261;49.010;12.034;2023-05-29T02:02:15;14.60;99.90
20204;DHT22;10261;49.010;12.034;2023-05-29T02:03:18;14.60;99.90
20204;DHT22;10261;49.010;12.034;2023-05-29T02:04:19;14.60;99.90
20204;DHT22;10261;49.010;12.034;2023-05-29T02:05:23;14.60;99.90
20204;DHT22;10261;49.010;12.034;2023-05-29T02:06:24;14.60;99.90
20204;DHT22;10261;49.010;12.034;2023-05-29T02:07:27;14.60;99.90
20204;DHT22;10261;49.010;12.034;2023-05-29T02:08:29;14.60;99.90
20204;DHT22;10261;49.010;12.034;2023-05-29T02:09:32;14.60;99.90
20204;DHT22;10261;49.010;12.034;2023-05-29T02:10:34;14.60;99.90
20204;DHT22;10261;49.010;12.034;2023-05-29T02:11:37;14.50;99.90
20204;DHT22;10261;49.010;12.034;2023-05-29T02:12:39;14.50;99.90
20204;DHT22;10261;49.010;12.034;2023-05-29T02:13:42;14.40;99.90
20204;DHT22;10261;49.010;12.034;2023-05-29T02:14:46;14.50;99.90
20204;DHT22;10261;49.010;12.034;2023-05-29T02:15:49;14.50;99.90
20204;DHT22;10261;49.010;12.034;2023-05-29T02:16:51;14.40;99.90
20204;DHT22;10261;49.010;12.034;2023-05-29T02:17:54;14.50;99.90
20204;DHT22;10261;49.010;12.034;2023-05-29T02:18:56;14.50;99.90
20204;DHT22;10261;49.010;12.034;2023-05-29T02:19:59;14.40;99.90
20204;DHT22;10261;49.010;12.034;2023-05-29T02:21:02;14.40;99.90
20204;DHT22;10261;49.010;12.034;2023-05-29T02:22:05;14.40;99.90
20204;DHT22;10261;49.010;12.034;2023-05-29T02:23:08;14.40;99.90
20204;DHT22;10261;49.010;12.034;2023-05-29T02:24:11;14.40;99.90
20204;DHT22;10261;49.010;12.034;2023-05-29T02:25:13;14.40;99.90
20204;DHT22;10261;49.010;12.034;2023-05-29T02:26:16;14.30;99.90
20204;DHT22;10261;49.010;12.034;2023-05-29T02:27:17;14.30;99.90
20204;DHT22;10261;49.010;12.034;2023-05-29T02:28:20;14.30;99.90
20204;DHT22;10261;49.010;12.034;2023-05-29T02:29:22;14.30;99.90
20204;DHT22;10261;49.010;12.034;2023-05-29T02:30:27;14.30;99.90
20204;DHT22;10261;49.010;12.034;2023-05-29T02:31:29;14.20;99.90
20204;DHT22;10261;49.010;12.034;2023-05-29T02:32:32;14.30;99.90
20204;DHT22;10261;49.010;12.034;2023-05-29T02:33:34;14.30;99.90
20204;DHT22;10261;49.010;12.034;2023-05-29T02:34:37;14.30;99.90
20204;DHT22;10261;49.010;12.034;2023-05-29T02:35:39;14.30;99.90
20204;DHT22;10261;49.010;12.034;2023-05-29T02:36:42;14.30;99.90
20204;DHT22;10261;49.010;12.034;2023-05-29T02:37:44;14.30;99.90
20204;DHT22;10261;49.010;12.034;2023-05-29T02:38:47;14.30;99.90
20204;DHT22;10261;49.010;12.034;2023-05-29T02:39:49;14.30;99.90
20204;DHT22;10261;49.010;12.034;2023-05-29T02:40:52;14.30;99.90
20204;DHT22;10261;49.010;12.034;2023-05-29T02:41:55;14.30;99.90
20204;DHT22;10261;49.010;12.034;2023-05-29T02:42:58;14.30;99.90
20204;DHT22;10261;49.010;12.034;2023-05-29T02:44:00;14.20;99.90
20204;DHT22;10261;49.010;12.034;2023-05-29T02:45:04;14.20;99.90
20204;DHT22;10261;49.010;12.034;2023-05-29T02:46:08;14.20;99.90
20204;DHT22;10261;49.010;12.034;2023-05-29T02:47:11;14.20;99.90
20204;DHT22;10261;49.010;12.034;2023-05-29T02:48:13;14.20;99.90
20204;DHT22;10261;49.010;12.034;2023-05-29T02:49:15;14.20;99.90
20204;DHT22;10261;49.010;12.034;2023-05-29T02:50:18;14.20;99.90
20204;DHT22;10261;49.010;12.034;2023-05-29T02:51:20;14.20;99.90
20204;DHT22;10261;49.010;12.034;2023-05-29T02:52:22;14.20;99.90
20204;DHT22;10261;49.010;12.034;2023-05-29T02:53:25;14.10;99.90
20204;DHT22;10261;49.010;12.034;2023-05-29T02:54:27;14.20;99.90
20204;DHT22;10261;49.010;12.034;2023-05-29T02:55:30;14.20;99.90
20204;DHT22;10261;49.010;12.034;2023-05-29T02:56:34;14.20;99.90
20204;DHT22;10261;49.010;12.034;2023-05-29T02:57:37;14.20;99.90
20204;DHT22;10261;49.010;12.034;2023-05-29T02:58:39;14.20;99.90
20204;DHT22;10261;49.010;12.034;2023-05-29T02:59:42;14.20;99.90
20204;DHT22;10261;49.010;12.034;2023-05-29T03:00:45;14.30;99.90
20204;DHT22;10261;49.010;12.034;2023-05-29T03:01:50;14.30;99.90
20204;DHT22;10261;49.010;12.034;2023-05-29T03:02:53;14.30;99.90
20204;DHT22;10261;49.010;12.034;2023-05-29T03:03:56;14.30;99.90
20204;DHT22;10261;49.010;12.034;2023-05-29T03:04:59;14.30;99.90
20204;DHT22;10261;49.010;12.034;2023-05-29T03:06:02;14.30;99.90
20204;DHT22;10261;49.010;12.034;2023-05-29T03:07:05;14.30;99.90
20204;DHT22;10261;49.010;12.034;2023-05-29T03:08:08;14.20;99.90
20204;DHT22;10261;49.010;12.034;2023-05-29T03:09:11;14.30;99.90
20204;DHT22;10261;49.010;12.034;2023-05-29T03:10:14;14.30;99.90
20204;DHT22;10261;49.010;12.034;2023-05-29T03:11:18;14.20;99.90
20204;DHT22;10261;49.010;12.034;2023-05-29T03:12:20;14.30;99.90
20204;DHT22;10261;49.010;12.034;2023-05-29T03:13:24;14.20;99.90
20204;DHT22;10261;49.010;12.034;2023-05-29T03:14:26;14.30;99.90
20204;DHT22;10261;49.010;12.034;2023-05-29T03:15:29;14.20;99.90
20204;DHT22;10261;49.010;12.034;2023-05-29T03:16:31;14.20;99.90
20204;DHT22;10261;49.010;12.034;2023-05-29T03:17:35;14.20;99.90
20204;DHT22;10261;49.010;12.034;2023-05-29T03:18:39;14.30;99.90
20204;DHT22;10261;49.010;12.034;2023-05-29T03:19:42;14.30;99.90
20204;DHT22;10261;49.010;12.034;2023-05-29T03:20:44;14.10;99.90
20204;DHT22;10261;49.010;12.034;2023-05-29T03:21:47;14.20;99.90
20204;DHT22;10261;49.010;12.034;2023-05-29T03:22:49;14.10;99.90
20204;DHT22;10261;49.010;12.034;2023-05-29T03:23:52;14.10;99.90
20204;DHT22;10261;49.010;12.034;2023-05-29T03:24:54;14.10;99.90
20204;DHT22;10261;49.010;12.034;2023-05-29T03:25:57;14.10;99.90
20204;DHT22;10261;49.010;12.034;2023-05-29T03:26:59;14.20;99.90
20204;DHT22;10261;49.010;12.034;2023-05-29T03:28:02;14.10;99.90
20204;DHT22;10261;49.010;12.034;2023-05-29T03:29:03;14.10;99.90
20204;DHT22;10261;49.010;12.034;2023-05-29T03:30:08;14.10;99.90
20204;DHT22;10261;49.010;12.034;2023-05-29T03:31:11;14.00;99.90
20204;DHT22;10261;49.010;12.034;2023-05-29T03:32:14;14.10;99.90
20204;DHT22;10261;49.010;12.034;2023-05-29T03:33:17;14.00;99.90
20204;DHT22;10261;49.010;12.034;2023-05-29T03:35:22;14.10;99.90
20204;DHT22;10261;49.010;12.034;2023-05-29T03:36:25;14.10;99.90
20204;DHT22;10261;49.010;12.034;2023-05-29T03:37:28;14.10;99.90
20204;DHT22;10261;49.010;12.034;2023-05-29T03:38:30;14.10;99.90
20204;DHT22;10261;49.010;12.034;2023-05-29T03:39:33;14.10;99.90
20204;DHT22;10261;49.010;12.034;2023-05-29T03:40:34;14.10;99.90
20204;DHT22;10261;49.010;12.034;2023-05-29T03:41:37;14.00;99.90
20204;DHT22;10261;49.010;12.034;2023-05-29T03:42:40;14.10;99.90
20204;DHT22;10261;49.010;12.034;2023-05-29T03:43:42;14.10;99.90
20204;DHT22;10261;49.010;12.034;2023-05-29T03:44:44;14.00;99.90
20204;DHT22;10261;49.010;12.034;2023-05-29T03:45:47;14.10;99.90
20204;DHT22;10261;49.010;12.034;2023-05-29T03:46:50;14.10;99.90
20204;DHT22;10261;49.010;12.034;2023-05-29T03:47:53;14.10;99.90
20204;DHT22;10261;49.010;12.034;2023-05-29T03:48:57;14.00;99.90
20204;DHT22;10261;49.010;12.034;2023-05-29T03:50:00;14.10;99.90
20204;DHT22;10261;49.010;12.034;2023-05-29T03:51:01;14.10;99.90
20204;DHT22;10261;49.010;12.034;2023-05-29T03:52:05;14.10;99.90
20204;DHT22;10261;49.010;12.034;2023-05-29T03:53:07;14.10;99.90
20204;DHT22;10261;49.010;12.034;2023-05-29T03:54:10;14.10;99.90
20204;DHT22;10261;49.010;12.034;2023-05-29T03:55:12;12.60;99.90
20204;DHT22;10261;49.010;12.034;2023-05-29T03:56:16;11.30;99.90
20204;DHT22;10261;49.010;12.034;2023-05-29T03:57:18;11.50;99.90
20204;DHT22;10261;49.010;12.034;2023-05-29T03:58:21;12.10;99.90
20204;DHT22;10261;49.010;12.034;2023-05-29T03:59:22;12.30;99.90
20204;DHT22;10261;49.010;12.034;2023-05-29T04:00:25;12.60;99.90
20204;DHT22;10261;49.010;12.034;2023-05-29T04:01:27;12.80;99.90
20204;DHT22;10261;49.010;12.034;2023-05-29T04:02:30;12.90;99.90
20204;DHT22;10261;49.010;12.034;2023-05-29T04:03:32;13.00;99.90
20204;DHT22;10261;49.010;12.034;2023-05-29T04:04:37;13.10;99.90
20204;DHT22;10261;49.010;12.034;2023-05-29T04:05:39;13.10;99.90
20204;DHT22;10261;49.010;12.034;2023-05-29T04:06:42;13.20;99.90
20204;DHT22;10261;49.010;12.034;2023-05-29T04:07:43;13.20;99.90
20204;DHT22;10261;49.010;12.034;2023-05-29T04:08:47;13.20;99.90
20204;DHT22;10261;49.010;12.034;2023-05-29T04:09:49;13.20;99.90
20204;DHT22;10261;49.010;12.034;2023-05-29T04:10:51;13.20;99.90
20204;DHT22;10261;49.010;12.034;2023-05-29T04:11:55;13.20;99.90
20204;DHT22;10261;49.010;12.034;2023-05-29T04:12:58;13.30;99.90
20204;DHT22;10261;49.010;12.034;2023-05-29T04:14:00;13.30;99.90
20204;DHT22;10261;49.010;12.034;2023-05-29T04:15:04;13.30;99.90
20204;DHT22;10261;49.010;12.034;2023-05-29T04:16:07;13.30;99.90
20204;DHT22;10261;49.010;12.034;2023-05-29T04:17:10;13.20;99.90
20204;DHT22;10261;49.010;12.034;2023-05-29T04:18:12;13.20;99.90
20204;DHT22;10261;49.010;12.034;2023-05-29T04:19:15;13.20;99.90
20204;DHT22;10261;49.010;12.034;2023-05-29T04:20:18;13.20;99.90
20204;DHT22;10261;49.010;12.034;2023-05-29T04:21:21;13.30;99.90
20204;DHT22;10261;49.010;12.034;2023-05-29T04:22:24;13.30;99.90
20204;DHT22;10261;49.010;12.034;2023-05-29T04:23:26;13.30;99.90
20204;DHT22;10261;49.010;12.034;2023-05-29T04:24:29;13.30;99.90
20204;DHT22;10261;49.010;12.034;2023-05-29T04:25:33;13.30;99.90
20204;DHT22;10261;49.010;12.034;2023-05-29T04:26:36;13.20;99.90
20204;DHT22;10261;49.010;12.034;2023-05-29T04:27:42;13.20;99.90
20204;DHT22;10261;49.010;12.034;2023-05-29T04:28:50;13.30;99.90
20204;DHT22;10261;49.010;12.034;2023-05-29T04:29:54;13.30;99.90
20204;DHT22;10261;49.010;12.034;2023-05-29T04:30:57;13.40;99.90
20204;DHT22;10261;49.010;12.034;2023-05-29T04:31:59;13.40;99.90
20204;DHT22;10261;49.010;12.034;2023-05-29T04:33:04;13.40;99.90
20204;DHT22;10261;49.010;12.034;2023-05-29T04:34:06;13.40;99.90
20204;DHT22;10261;49.010;12.034;2023-05-29T04:35:09;13.40;99.90
20204;DHT22;10261;49.010;12.034;2023-05-29T04:36:13;13.40;99.90
20204;DHT22;10261;49.010;12.034;2023-05-29T04:37:16;13.40;99.90
20204;DHT22;10261;49.010;12.034;2023-05-29T04:38:18;13.40;99.90
20204;DHT22;10261;49.010;12.034;2023-05-29T04:39:26;13.40;99.90
20204;DHT22;10261;49.010;12.034;2023-05-29T04:40:28;13.40;99.90
20204;DHT22;10261;49.010;12.034;2023-05-29T04:41:33;13.50;99.90
20204;DHT22;10261;49.010;12.034;2023-05-29T04:42:35;13.50;99.90
20204;DHT22;10261;49.010;12.034;2023-05-29T04:43:38;13.50;99.90
20204;DHT22;10261;49.010;12.034;2023-05-29T04:44:42;13.50;99.90
20204;DHT22;10261;49.010;12.034;2023-05-29T04:45:44;13.50;99.90
20204;DHT22;10261;49.010;12.034;2023-05-29T04:46:46;13.60;99.90
20204;DHT22;10261;49.010;12.034;2023-05-29T04:47:50;13.60;99.90
20204;DHT22;10261;49.010;12.034;2023-05-29T04:48:55;13.50;99.90
20204;DHT22;10261;49.010;12.034;2023-05-29T04:49:58;13.50;99.90
20204;DHT22;10261;49.010;12.034;2023-05-29T04:51:01;13.60;99.90
20204;DHT22;10261;49.010;12.034;2023-05-29T04:52:05;13.60;99.90
20204;DHT22;10261;49.010;12.034;2023-05-29T04:53:07;13.60;99.90
20204;DHT22;10261;49.010;12.034;2023-05-29T04:54:10;13.60;99.90
20204;DHT22;10261;49.010;12.034;2023-05-29T04:55:12;13.60;99.90
20204;DHT22;10261;49.010;12.034;2023-05-29T04:57:18;13.70;99.90
20204;DHT22;10261;49.010;12.034;2023-05-29T04:58:21;13.70;99.90
20204;DHT22;10261;49.010;12.034;2023-05-29T04:59:23;13.70;99.90
20204;DHT22;10261;49.010;12.034;2023-05-29T05:00:26;13.80;99.90
20204;DHT22;10261;49.010;12.034;2023-05-29T05:01:28;13.80;99.90
20204;DHT22;10261;49.010;12.034;2023-05-29T05:02:35;13.90;99.90
20204;DHT22;10261;49.010;12.034;2023-05-29T05:03:38;13.80;99.90
20204;DHT22;10261;49.010;12.034;2023-05-29T05:04:41;13.90;99.90
20204;DHT22;10261;49.010;12.034;2023-05-29T05:05:44;13.90;99.90
20204;DHT22;10261;49.010;12.034;2023-05-29T05:06:47;13.90;99.90
20204;DHT22;10261;49.010;12.034;2023-05-29T05:07:50;13.80;99.90
20204;DHT22;10261;49.010;12.034;2023-05-29T05:08:53;13.90;99.90
20204;DHT22;10261;49.010;12.034;2023-05-29T05:09:55;13.90;99.90
20204;DHT22;10261;49.010;12.034;2023-05-29T05:10:59;13.90;99.90
20204;DHT22;10261;49.010;12.034;2023-05-29T05:12:01;13.90;99.90
20204;DHT22;10261;49.010;12.034;2023-05-29T05:13:03;13.90;99.90
20204;DHT22;10261;49.010;12.034;2023-05-29T05:14:08;14.00;99.90
20204;DHT22;10261;49.010;12.034;2023-05-29T05:15:12;14.00;99.90
20204;DHT22;10261;49.010;12.034;2023-05-29T05:16:14;14.00;99.90
20204;DHT22;10261;49.010;12.034;2023-05-29T05:17:18;14.00;99.90
20204;DHT22;10261;49.010;12.034;2023-05-29T05:18:20;14.00;99.90
20204;DHT22;10261;49.010;12.034;2023-05-29T05:19:23;14.00;99.90
20204;DHT22;10261;49.010;12.034;2023-05-29T05:20:25;13.90;99.90
20204;DHT22;10261;49.010;12.034;2023-05-29T05:21:27;14.00;99.90
20204;DHT22;10261;49.010;12.034;2023-05-29T05:22:32;14.00;99.90
20204;DHT22;10261;49.010;12.034;2023-05-29T05:23:36;14.10;99.90
20204;DHT22;10261;49.010;12.034;2023-05-29T05:24:57;14.10;99.90
20204;DHT22;10261;49.010;12.034;2023-05-29T05:26:01;14.10;99.90
20204;DHT22;10261;49.010;12.034;2023-05-29T05:27:04;14.10;99.90
20204;DHT22;10261;49.010;12.034;2023-05-29T05:28:08;14.10;99.90
20204;DHT22;10261;49.010;12.034;2023-05-29T05:29:10;14.20;99.90
20204;DHT22;10261;49.010;12.034;2023-05-29T05:30:13;14.20;99.90
20204;DHT22;10261;49.010;12.034;2023-05-29T05:31:15;14.20;99.90
20204;DHT22;10261;49.010;12.034;2023-05-29T05:32:18;14.20;99.90
20204;DHT22;10261;49.010;12.034;2023-05-29T05:33:20;14.30;99.90
20204;DHT22;10261;49.010;12.034;2023-05-29T05:34:23;14.30;99.90
20204;DHT22;10261;49.010;12.034;2023-05-29T05:35:25;14.30;99.90
20204;DHT22;10261;49.010;12.034;2023-05-29T05:36:29;14.30;99.90
20204;DHT22;10261;49.010;12.034;2023-05-29T05:37:32;14.30;99.90
20204;DHT22;10261;49.010;12.034;2023-05-29T05:38:37;14.30;99.90
20204;DHT22;10261;49.010;12.034;2023-05-29T05:39:38;14.40;99.90
20204;DHT22;10261;49.010;12.034;2023-05-29T05:40:41;14.40;99.90
20204;DHT22;10261;49.010;12.034;2023-05-29T05:42:49;14.40;99.90
20204;DHT22;10261;49.010;12.034;2023-05-29T05:43:52;14.50;99.90
20204;DHT22;10261;49.010;12.034;2023-05-29T05:44:54;12.30;99.90
20204;DHT22;10261;49.010;12.034;2023-05-29T05:45:57;14.50;99.90
20204;DHT22;10261;49.010;12.034;2023-05-29T05:46:59;14.50;99.90
20204;DHT22;10261;49.010;12.034;2023-05-29T05:48:02;14.50;99.90
20204;DHT22;10261;49.010;12.034;2023-05-29T05:50:08;14.50;99.90
20204;DHT22;10261;49.010;12.034;2023-05-29T05:51:10;14.50;99.90
20204;DHT22;10261;49.010;12.034;2023-05-29T05:52:13;14.60;99.90
20204;DHT22;10261;49.010;12.034;2023-05-29T05:53:15;14.60;99.90
20204;DHT22;10261;49.010;12.034;2023-05-29T05:54:20;14.60;99.90
20204;DHT22;10261;49.010;12.034;2023-05-29T05:55:22;14.60;99.90
20204;DHT22;10261;49.010;12.034;2023-05-29T05:56:24;14.30;99.90
20204;DHT22;10261;49.010;12.034;2023-05-29T05:57:27;13.80;99.90
20204;DHT22;10261;49.010;12.034;2023-05-29T05:58:30;13.60;99.90
20204;DHT22;10261;49.010;12.034;2023-05-29T05:59:32;13.40;99.90
20204;DHT22;10261;49.010;12.034;2023-05-29T06:00:35;13.40;99.90
20204;DHT22;10261;49.010;12.034;2023-05-29T06:01:37;13.50;99.90
20204;DHT22;10261;49.010;12.034;2023-05-29T06:02:40;13.50;99.90
20204;DHT22;10261;49.010;12.034;2023-05-29T06:03:44;13.50;99.90
20204;DHT22;10261;49.010;12.034;2023-05-29T06:04:47;13.50;99.90
20204;DHT22;10261;49.010;12.034;2023-05-29T06:05:51;13.50;99.90
20204;DHT22;10261;49.010;12.034;2023-05-29T06:06:55;13.50;99.90
20204;DHT22;10261;49.010;12.034;2023-05-29T06:07:57;13.50;99.90
20204;DHT22;10261;49.010;12.034;2023-05-29T06:09:00;13.60;99.90
20204;DHT22;10261;49.010;12.034;2023-05-29T06:10:04;13.60;99.90
20204;DHT22;10261;49.010;12.034;2023-05-29T06:11:07;13.60;99.90
20204;DHT22;10261;49.010;12.034;2023-05-29T06:12:09;13.60;99.90
20204;DHT22;10261;49.010;12.034;2023-05-29T06:13:12;13.60;99.90
20204;DHT22;10261;49.010;12.034;2023-05-29T06:14:14;13.70;99.90
20204;DHT22;10261;49.010;12.034;2023-05-29T06:15:18;13.70;99.90
20204;DHT22;10261;49.010;12.034;2023-05-29T06:16:20;13.80;99.90
20204;DHT22;10261;49.010;12.034;2023-05-29T06:17:23;13.80;99.90
20204;DHT22;10261;49.010;12.034;2023-05-29T06:18:25;13.90;99.90
20204;DHT22;10261;49.010;12.034;2023-05-29T06:19:28;13.90;99.90
20204;DHT22;10261;49.010;12.034;2023-05-29T06:20:30;14.00;99.90
20204;DHT22;10261;49.010;12.034;2023-05-29T06:21:33;14.00;99.90
20204;DHT22;10261;49.010;12.034;2023-05-29T06:22:36;14.10;99.90
20204;DHT22;10261;49.010;12.034;2023-05-29T06:24:43;14.20;99.90
20204;DHT22;10261;49.010;12.034;2023-05-29T06:25:47;14.20;99.90
20204;DHT22;10261;49.010;12.034;2023-05-29T06:26:50;14.30;99.90
20204;DHT22;10261;49.010;12.034;2023-05-29T06:27:52;14.30;99.90
20204;DHT22;10261;49.010;12.034;2023-05-29T06:28:55;14.30;99.90
20204;DHT22;10261;49.010;12.034;2023-05-29T06:29:58;14.40;99.90
20204;DHT22;10261;49.010;12.034;2023-05-29T06:31:00;14.30;99.90
20204;DHT22;10261;49.010;12.034;2023-05-29T06:32:04;14.40;99.90
20204;DHT22;10261;49.010;12.034;2023-05-29T06:33:06;14.40;99.90
20204;DHT22;10261;49.010;12.034;2023-05-29T06:34:09;14.50;99.90
20204;DHT22;10261;49.010;12.034;2023-05-29T06:35:11;14.50;99.90
20204;DHT22;10261;49.010;12.034;2023-05-29T06:36:13;14.60;99.90
20204;DHT22;10261;49.010;12.034;2023-05-29T06:37:16;14.70;99.90
20204;DHT22;10261;49.010;12.034;2023-05-29T06:39:21;14.70;99.90